createdAt,value
2022-12-18T00:01:54.937Z,101297.19
2022-12-18T00:07:00.052Z,101285.41
2022-12-18T00:17:17.500Z,101305.91
2022-12-18T00:22:19.304Z,101291.41
2022-12-18T00:27:20.972Z,101297.47
2022-12-18T00:32:22.728Z,101304.59
2022-12-18T00:37:25.414Z,101300.38
2022-12-18T00:42:45.576Z,101300.97
2022-12-18T00:47:47.760Z,101289.81
2022-12-18T00:52:49.839Z,101303.34
2022-12-18T00:57:53.345Z,101310.38
2022-12-18T01:02:55.194Z,101323.72
2022-12-18T01:07:57.416Z,101312.56
2022-12-18T01:12:59.127Z,101317.03
2022-12-18T01:18:00.854Z,101315.22
2022-12-18T01:23:03.534Z,101331.06
2022-12-18T01:28:11.272Z,101332.59
2022-12-18T01:33:13.019Z,101318.28
2022-12-18T01:38:14.662Z,101318.63
2022-12-18T01:43:16.311Z,101309.41
2022-12-18T01:48:17.980Z,101321.56
2022-12-18T01:53:22.665Z,101332.75
2022-12-18T01:58:49.354Z,101334.75
2022-12-18T02:03:52.480Z,101325.47
2022-12-18T02:09:07.255Z,101325.22
2022-12-18T02:14:44.132Z,101307.13
2022-12-18T02:19:57.939Z,101302.69
2022-12-18T02:25:22.507Z,101308.28
2022-12-18T02:30:24.734Z,101297.19
2022-12-18T02:35:30.525Z,101296.78
2022-12-18T02:40:32.889Z,101302.03
2022-12-18T02:45:34.625Z,101305.66
2022-12-18T02:50:44.801Z,101303.59
2022-12-18T02:56:12.682Z,101308.91
2022-12-18T03:01:25.565Z,101307.84
2022-12-18T03:06:44.585Z,101311.53
2022-12-18T03:12:14.212Z,101303.81
2022-12-18T03:17:21.255Z,101301.16
2022-12-18T03:22:25.951Z,101306.97
2022-12-18T03:27:30.826Z,101305.66
2022-12-18T03:38:54.964Z,101283.16
2022-12-18T03:44:29.868Z,101301.03
2022-12-18T03:50:09.600Z,101291.34
2022-12-18T03:55:14.192Z,101288.94
2022-12-18T04:00:19.152Z,101285.88
2022-12-18T04:05:22.900Z,101281.09
2022-12-18T04:10:24.620Z,101276.00
2022-12-18T04:15:26.446Z,101266.16
2022-12-18T04:20:28.131Z,101263.00
2022-12-18T04:25:30.069Z,101265.97
2022-12-18T04:30:31.730Z,101260.53
2022-12-18T04:35:33.327Z,101267.56
2022-12-18T04:40:36.699Z,101273.50
2022-12-18T04:45:38.405Z,101282.97
2022-12-18T04:50:40.025Z,101286.41
2022-12-18T04:55:42.580Z,101288.63
2022-12-18T05:00:44.240Z,101280.66
2022-12-18T05:05:45.896Z,101286.16
2022-12-18T05:10:47.544Z,101284.03
2022-12-18T05:15:53.659Z,101292.00
2022-12-18T05:20:55.898Z,101296.69
2022-12-18T05:26:00.631Z,101287.63
2022-12-18T05:31:04.203Z,101282.91
2022-12-18T05:36:08.608Z,101273.69
2022-12-18T05:41:10.380Z,101279.19
2022-12-18T05:46:17.574Z,101279.53
2022-12-18T05:51:21.182Z,101285.09
2022-12-18T05:56:24.096Z,101281.38
2022-12-18T06:01:27.718Z,101276.09
2022-12-18T06:06:29.989Z,101293.28
2022-12-18T06:11:31.603Z,101275.66
2022-12-18T06:16:33.860Z,101303.75
2022-12-18T06:21:35.768Z,101298.81
2022-12-18T06:26:39.890Z,101298.59
2022-12-18T06:31:41.626Z,101303.00
2022-12-18T06:36:43.348Z,101315.81
2022-12-18T06:41:45.774Z,101313.88
2022-12-18T06:46:47.555Z,101320.94
2022-12-18T06:51:49.159Z,101321.03
2022-12-18T06:56:50.876Z,101325.19
2022-12-18T07:01:52.863Z,101326.72
2022-12-18T07:06:54.612Z,101322.53
2022-12-18T07:11:57.160Z,101326.94
2022-12-18T07:16:59.647Z,101312.66
2022-12-18T07:22:02.643Z,101308.28
2022-12-18T07:27:04.797Z,101315.00
2022-12-18T07:32:34.374Z,101313.41
2022-12-18T07:37:36.999Z,101315.66
2022-12-18T07:42:38.852Z,101327.00
2022-12-18T07:47:42.292Z,101327.31
2022-12-18T07:52:44.054Z,101330.06
2022-12-18T07:57:51.285Z,101326.50
2022-12-18T08:02:54.530Z,101325.41
2022-12-18T08:07:57.480Z,101315.53
2022-12-18T08:13:04.704Z,101315.06
2022-12-18T08:18:10.179Z,101318.81
2022-12-18T08:23:15.688Z,101322.34
2022-12-18T08:28:17.436Z,101307.13
2022-12-18T08:33:19.365Z,101293.56
2022-12-18T08:38:21.158Z,101272.66
2022-12-18T08:43:41.687Z,101274.50
2022-12-18T08:48:44.690Z,101267.63
2022-12-18T08:53:47.237Z,101262.81
2022-12-18T08:58:48.900Z,101265.66
2022-12-18T09:03:52.372Z,101273.03
2022-12-18T09:08:54.299Z,101273.28
2022-12-18T09:13:57.440Z,101280.25
2022-12-18T09:19:00.952Z,101292.22
2022-12-18T09:24:03.357Z,101295.03
2022-12-18T09:29:05.671Z,101289.06
2022-12-18T09:34:08.798Z,101272.44
2022-12-18T09:39:10.501Z,101271.41
2022-12-18T09:44:19.399Z,101275.53
2022-12-18T09:49:26.523Z,101275.97
2022-12-18T09:54:37.023Z,101289.84
2022-12-18T10:06:13.134Z,101256.66
2022-12-18T10:11:41.430Z,101254.63
2022-12-18T10:16:55.920Z,101248.66
2022-12-18T10:22:12.249Z,101249.06
2022-12-18T10:27:17.179Z,101244.75
2022-12-18T10:32:21.856Z,101242.56
2022-12-18T10:37:26.671Z,101237.91
2022-12-18T10:42:28.344Z,101229.22
2022-12-18T10:47:30.220Z,101232.47
2022-12-18T10:52:32.052Z,101225.00
2022-12-18T10:57:42.715Z,101228.72
2022-12-18T11:02:44.677Z,101217.09
2022-12-18T11:07:51.815Z,101210.47
2022-12-18T11:12:54.677Z,101210.06
2022-12-18T11:17:56.949Z,101207.63
2022-12-18T11:23:12.338Z,101196.56
2022-12-18T11:29:24.143Z,101194.25
2022-12-18T11:34:32.223Z,101202.00
2022-12-18T11:39:43.307Z,101195.47
2022-12-18T11:45:00.014Z,101197.56
2022-12-18T11:50:03.746Z,101199.47
2022-12-18T11:55:13.179Z,101188.69
2022-12-18T12:00:20.698Z,101190.75
2022-12-18T12:05:52.341Z,101190.47
2022-12-18T12:11:09.069Z,101183.03
2022-12-18T12:16:42.046Z,101180.59
2022-12-18T12:22:18.592Z,101168.47
2022-12-18T12:27:35.127Z,101159.44
2022-12-18T12:32:50.779Z,101163.13
2022-12-18T12:38:07.307Z,101164.28
2022-12-18T12:43:50.529Z,101175.56
2022-12-18T12:49:16.943Z,101178.28
2022-12-18T12:54:25.767Z,101157.09
2022-12-18T12:59:49.392Z,101142.63
2022-12-18T13:05:19.035Z,101144.91
2022-12-18T13:10:27.106Z,101140.59
2022-12-18T13:21:03.259Z,101121.28
2022-12-18T13:26:11.515Z,101128.88
2022-12-18T13:31:41.825Z,101120.41
2022-12-18T13:36:43.836Z,101126.25
2022-12-18T13:41:50.038Z,101125.38
2022-12-18T13:46:53.637Z,101119.63
2022-12-18T13:51:57.494Z,101117.09
2022-12-18T13:57:01.840Z,101120.06
2022-12-18T14:02:14.901Z,101115.47
2022-12-18T14:07:20.669Z,101121.97
2022-12-18T14:12:46.426Z,101140.72
2022-12-18T14:17:52.050Z,101136.94
2022-12-18T14:22:54.091Z,101138.38
2022-12-18T14:28:08.487Z,101151.97
2022-12-18T14:33:21.591Z,101147.50
2022-12-18T14:38:40.994Z,101138.81
2022-12-18T14:43:45.248Z,101128.75
2022-12-18T14:48:49.086Z,101134.72
2022-12-18T14:54:16.090Z,101128.28
2022-12-18T14:59:24.642Z,101127.16
2022-12-18T15:04:31.831Z,101123.47
2022-12-18T15:09:33.732Z,101125.09
2022-12-18T15:14:42.011Z,101129.59
2022-12-18T15:19:46.623Z,101128.44
2022-12-18T15:24:49.032Z,101122.28
2022-12-18T15:30:09.661Z,101116.88
2022-12-18T15:35:26.834Z,101121.97
2022-12-18T15:40:47.384Z,101113.81
2022-12-18T15:46:12.835Z,101106.25
2022-12-18T15:51:22.882Z,101108.13
2022-12-18T15:56:44.836Z,101114.94
2022-12-18T16:01:49.387Z,101112.47
2022-12-18T16:07:14.326Z,101116.59
2022-12-18T16:12:23.374Z,101108.78
2022-12-18T16:17:25.749Z,101105.00
2022-12-18T16:22:29.670Z,101105.81
2022-12-18T16:27:31.931Z,101095.81
2022-12-18T16:32:34.947Z,101092.88
2022-12-18T16:37:37.271Z,101099.97
2022-12-18T16:42:41.366Z,101090.00
2022-12-18T16:47:43.594Z,101106.34
2022-12-18T16:52:45.300Z,101096.78
2022-12-18T16:57:47.157Z,101092.53
2022-12-18T17:02:48.919Z,101084.97
2022-12-18T17:07:50.794Z,101066.91
2022-12-18T17:12:52.714Z,101059.44
2022-12-18T17:17:54.348Z,101051.69
2022-12-18T17:22:59.281Z,101045.81
2022-12-18T17:28:02.634Z,101059.50
2022-12-18T17:33:04.692Z,101060.50
2022-12-18T17:38:07.182Z,101054.47
2022-12-18T17:43:10.028Z,101050.28
2022-12-18T17:48:12.392Z,101042.47
2022-12-18T17:53:17.561Z,101044.13
2022-12-18T17:58:19.317Z,101057.88
2022-12-18T18:03:21.723Z,101058.94
2022-12-18T18:08:24.662Z,101067.47
2022-12-18T18:13:47.126Z,101056.25
2022-12-18T18:18:49.090Z,101041.47
2022-12-18T18:23:52.389Z,101034.84
2022-12-18T18:28:55.919Z,101034.94
2022-12-18T18:33:59.375Z,101035.03
2022-12-18T18:39:02.389Z,101022.28
2022-12-18T18:44:06.282Z,101015.28
2022-12-18T18:49:08.452Z,101006.84
2022-12-18T18:54:11.507Z,100989.13
2022-12-18T18:59:15.660Z,100979.06
2022-12-18T19:04:17.415Z,100984.16
2022-12-18T19:09:23.265Z,100983.59
2022-12-18T19:14:25.230Z,100972.28
2022-12-18T19:19:27.350Z,100979.00
2022-12-18T19:24:29.431Z,100970.72
2022-12-18T19:29:31.137Z,100968.34
2022-12-18T19:34:34.513Z,100954.00
2022-12-18T19:39:36.247Z,100947.09
2022-12-18T19:44:38.100Z,100949.75
2022-12-18T19:49:39.957Z,100951.63
2022-12-18T19:54:43.834Z,100950.16
2022-12-18T19:59:45.594Z,100951.06
2022-12-18T20:04:49.896Z,100962.97
2022-12-18T20:09:59.594Z,100968.94
2022-12-18T20:15:04.856Z,100963.25
2022-12-18T20:20:07.215Z,100965.13
2022-12-18T20:25:10.671Z,100959.97
2022-12-18T20:30:13.679Z,100957.28
2022-12-18T20:35:18.115Z,100946.06
2022-12-18T20:40:20.668Z,100923.97
2022-12-18T20:45:23.174Z,100933.41
2022-12-18T20:50:24.978Z,100942.66
2022-12-18T20:55:26.735Z,100949.56
2022-12-18T21:00:29.339Z,100936.94
2022-12-18T21:05:31.132Z,100941.09
2022-12-18T21:10:34.353Z,100937.81
2022-12-18T21:15:36.920Z,100956.56
2022-12-18T21:20:38.579Z,100943.00
2022-12-18T21:25:40.229Z,100943.00
2022-12-18T21:30:41.938Z,100943.88
2022-12-18T21:35:43.601Z,100935.31
2022-12-18T21:40:45.307Z,100946.50
2022-12-18T21:45:47.209Z,100942.38
2022-12-18T21:50:48.947Z,100940.69
2022-12-18T21:56:00.457Z,100927.97
2022-12-18T22:01:02.242Z,100928.88
2022-12-18T22:06:09.515Z,100939.03
2022-12-18T22:11:12.692Z,100942.50
2022-12-18T22:16:14.351Z,100934.91
2022-12-18T22:21:34.586Z,100930.63
2022-12-18T22:26:40.148Z,100927.22
2022-12-18T22:31:42.276Z,100921.25
2022-12-18T22:36:46.759Z,100905.13
2022-12-18T22:41:48.831Z,100899.97
2022-12-18T22:46:56.234Z,100905.13
2022-12-18T22:52:09.541Z,100899.31
2022-12-18T22:57:11.277Z,100902.75
2022-12-18T23:02:13.106Z,100902.75
2022-12-18T23:07:15.647Z,100891.78
2022-12-18T23:12:18.771Z,100885.75
2022-12-18T23:17:20.459Z,100884.00
2022-12-18T23:22:22.179Z,100873.81
2022-12-18T23:27:23.825Z,100871.28
2022-12-18T23:32:25.589Z,100861.03
2022-12-18T23:37:50.231Z,100856.00
2022-12-18T23:42:48.724Z,100855.88
2022-12-18T23:47:51.295Z,100858.53
2022-12-18T23:52:53.128Z,100856.94
2022-12-18T23:57:54.802Z,100867.25
